sensor_id;sensor_type;location;lat;lon;timestamp;P1;durP1;ratioP1;P2;durP2;ratioP2
66073;SDS011;52859;48.104;11.574;2022-08-07T00:01:02;17.08;;;15.27;;
66073;SDS011;52859;48.104;11.574;2022-08-07T00:03:48;15.13;;;13.73;;
66073;SDS011;52859;48.104;11.574;2022-08-07T00:06:15;16.98;;;15.05;;
66073;SDS011;52859;48.104;11.574;2022-08-07T00:08:41;15.75;;;14.20;;
66073;SDS011;52859;48.104;11.574;2022-08-07T00:11:09;15.00;;;13.38;;
66073;SDS011;52859;48.104;11.574;2022-08-07T00:13:36;14.05;;;12.65;;
66073;SDS011;52859;48.104;11.574;2022-08-07T00:16:10;15.50;;;13.90;;
66073;SDS011;52859;48.104;11.574;2022-08-07T00:18:42;15.88;;;13.93;;
66073;SDS011;52859;48.104;11.574;2022-08-07T00:21:09;15.13;;;13.63;;
66073;SDS011;52859;48.104;11.574;2022-08-07T00:23:55;14.38;;;12.85;;
66073;SDS011;52859;48.104;11.574;2022-08-07T00:26:22;14.20;;;12.77;;
66073;SDS011;52859;48.104;11.574;2022-08-07T00:29:08;13.35;;;11.98;;
66073;SDS011;52859;48.104;11.574;2022-08-07T00:31:37;12.05;;;10.88;;
66073;SDS011;52859;48.104;11.574;2022-08-07T00:34:07;13.23;;;11.85;;
66073;SDS011;52859;48.104;11.574;2022-08-07T00:36:35;11.88;;;10.68;;
66073;SDS011;52859;48.104;11.574;2022-08-07T00:39:07;11.88;;;10.68;;
66073;SDS011;52859;48.104;11.574;2022-08-07T00:41:46;10.60;;;9.63;;
66073;SDS011;52859;48.104;11.574;2022-08-07T00:44:19;11.10;;;10.00;;
66073;SDS011;52859;48.104;11.574;2022-08-07T00:46:46;9.25;;;8.35;;
66073;SDS011;52859;48.104;11.574;2022-08-07T00:49:12;10.70;;;9.60;;
66073;SDS011;52859;48.104;11.574;2022-08-07T00:51:58;9.80;;;8.90;;
66073;SDS011;52859;48.104;11.574;2022-08-07T00:54:25;10.50;;;9.43;;
66073;SDS011;52859;48.104;11.574;2022-08-07T00:56:51;9.50;;;8.60;;
66073;SDS011;52859;48.104;11.574;2022-08-07T00:59:18;9.60;;;8.45;;
66073;SDS011;52859;48.104;11.574;2022-08-07T01:02:02;10.75;;;9.65;;
66073;SDS011;52859;48.104;11.574;2022-08-07T01:04:31;8.65;;;7.80;;
66073;SDS011;52859;48.104;11.574;2022-08-07T01:07:05;8.70;;;7.88;;
66073;SDS011;52859;48.104;11.574;2022-08-07T01:09:33;8.80;;;7.80;;
66073;SDS011;52859;48.104;11.574;2022-08-07T01:12:19;9.30;;;8.40;;
66073;SDS011;52859;48.104;11.574;2022-08-07T01:14:56;8.10;;;7.32;;
66073;SDS011;52859;48.104;11.574;2022-08-07T01:17:29;7.32;;;6.68;;
66073;SDS011;52859;48.104;11.574;2022-08-07T01:19:57;7.68;;;6.97;;
66073;SDS011;52859;48.104;11.574;2022-08-07T01:22:27;6.93;;;6.32;;
66073;SDS011;52859;48.104;11.574;2022-08-07T01:24:54;7.63;;;6.70;;
66073;SDS011;52859;48.104;11.574;2022-08-07T01:27:22;7.55;;;6.88;;
66073;SDS011;52859;48.104;11.574;2022-08-07T01:29:58;7.68;;;6.32;;
66073;SDS011;52859;48.104;11.574;2022-08-07T01:32:26;8.43;;;7.50;;
66073;SDS011;52859;48.104;11.574;2022-08-07T01:34:54;7.85;;;7.15;;
66073;SDS011;52859;48.104;11.574;2022-08-07T01:37:22;7.43;;;6.82;;
66073;SDS011;52859;48.104;11.574;2022-08-07T01:39:52;7.93;;;7.22;;
66073;SDS011;52859;48.104;11.574;2022-08-07T01:42:28;7.88;;;7.07;;
66073;SDS011;52859;48.104;11.574;2022-08-07T01:45:06;7.97;;;7.20;;
66073;SDS011;52859;48.104;11.574;2022-08-07T01:47:45;7.55;;;6.85;;
66073;SDS011;52859;48.104;11.574;2022-08-07T01:50:33;6.50;;;5.90;;
66073;SDS011;52859;48.104;11.574;2022-08-07T01:53:02;7.65;;;6.88;;
66073;SDS011;52859;48.104;11.574;2022-08-07T01:55:38;6.28;;;5.57;;
66073;SDS011;52859;48.104;11.574;2022-08-07T01:58:06;7.15;;;6.20;;
66073;SDS011;52859;48.104;11.574;2022-08-07T02:00:56;6.07;;;5.47;;
66073;SDS011;52859;48.104;11.574;2022-08-07T02:03:44;6.45;;;5.85;;
66073;SDS011;52859;48.104;11.574;2022-08-07T02:06:17;6.63;;;6.03;;
66073;SDS011;52859;48.104;11.574;2022-08-07T02:08:59;7.53;;;6.38;;
66073;SDS011;52859;48.104;11.574;2022-08-07T02:11:34;5.75;;;5.25;;
66073;SDS011;52859;48.104;11.574;2022-08-07T02:14:23;7.53;;;6.18;;
66073;SDS011;52859;48.104;11.574;2022-08-07T02:17:12;7.05;;;6.07;;
66073;SDS011;52859;48.104;11.574;2022-08-07T02:19:50;5.72;;;5.22;;
66073;SDS011;52859;48.104;11.574;2022-08-07T02:22:36;8.38;;;6.03;;
66073;SDS011;52859;48.104;11.574;2022-08-07T02:25:09;7.22;;;6.60;;
66073;SDS011;52859;48.104;11.574;2022-08-07T02:27:52;6.90;;;6.03;;
66073;SDS011;52859;48.104;11.574;2022-08-07T02:30:20;6.70;;;6.20;;
66073;SDS011;52859;48.104;11.574;2022-08-07T02:32:48;6.00;;;5.50;;
66073;SDS011;52859;48.104;11.574;2022-08-07T02:35:35;6.32;;;5.65;;
66073;SDS011;52859;48.104;11.574;2022-08-07T02:38:25;5.90;;;5.32;;
66073;SDS011;52859;48.104;11.574;2022-08-07T02:40:58;5.22;;;4.60;;
66073;SDS011;52859;48.104;11.574;2022-08-07T02:43:26;5.32;;;4.93;;
66073;SDS011;52859;48.104;11.574;2022-08-07T02:45:53;5.88;;;5.05;;
66073;SDS011;52859;48.104;11.574;2022-08-07T02:48:26;5.05;;;4.65;;
66073;SDS011;52859;48.104;11.574;2022-08-07T02:50:55;6.18;;;4.65;;
66073;SDS011;52859;48.104;11.574;2022-08-07T02:53:27;5.65;;;5.15;;
66073;SDS011;52859;48.104;11.574;2022-08-07T02:55:59;5.25;;;4.75;;
66073;SDS011;52859;48.104;11.574;2022-08-07T02:58:32;5.80;;;5.07;;
66073;SDS011;52859;48.104;11.574;2022-08-07T03:01:00;5.68;;;5.18;;
66073;SDS011;52859;48.104;11.574;2022-08-07T03:03:30;7.43;;;5.60;;
66073;SDS011;52859;48.104;11.574;2022-08-07T03:06:19;5.55;;;5.15;;
66073;SDS011;52859;48.104;11.574;2022-08-07T03:09:02;5.10;;;4.70;;
66073;SDS011;52859;48.104;11.574;2022-08-07T03:11:30;5.60;;;5.10;;
66073;SDS011;52859;48.104;11.574;2022-08-07T03:14:06;6.57;;;5.90;;
66073;SDS011;52859;48.104;11.574;2022-08-07T03:16:32;6.65;;;5.43;;
66073;SDS011;52859;48.104;11.574;2022-08-07T03:19:00;6.78;;;6.18;;
66073;SDS011;52859;48.104;11.574;2022-08-07T03:21:27;6.22;;;5.57;;
66073;SDS011;52859;48.104;11.574;2022-08-07T03:23:58;7.70;;;6.95;;
66073;SDS011;52859;48.104;11.574;2022-08-07T03:26:46;8.07;;;6.35;;
66073;SDS011;52859;48.104;11.574;2022-08-07T03:29:23;6.60;;;6.10;;
66073;SDS011;52859;48.104;11.574;2022-08-07T03:31:52;6.95;;;6.35;;
66073;SDS011;52859;48.104;11.574;2022-08-07T03:34:21;6.20;;;5.63;;
66073;SDS011;52859;48.104;11.574;2022-08-07T03:36:55;7.38;;;5.95;;
66073;SDS011;52859;48.104;11.574;2022-08-07T03:39:23;6.70;;;6.10;;
66073;SDS011;52859;48.104;11.574;2022-08-07T03:42:11;7.15;;;6.45;;
66073;SDS011;52859;48.104;11.574;2022-08-07T03:44:38;7.20;;;6.60;;
66073;SDS011;52859;48.104;11.574;2022-08-07T03:47:06;6.97;;;6.20;;
66073;SDS011;52859;48.104;11.574;2022-08-07T03:49:44;6.97;;;6.45;;
66073;SDS011;52859;48.104;11.574;2022-08-07T03:52:26;6.97;;;6.38;;
66073;SDS011;52859;48.104;11.574;2022-08-07T03:54:56;6.85;;;6.18;;
66073;SDS011;52859;48.104;11.574;2022-08-07T03:57:35;7.47;;;6.88;;
66073;SDS011;52859;48.104;11.574;2022-08-07T04:00:23;8.23;;;7.53;;
66073;SDS011;52859;48.104;11.574;2022-08-07T04:02:55;7.15;;;6.38;;
66073;SDS011;52859;48.104;11.574;2022-08-07T04:05:28;7.88;;;7.15;;
66073;SDS011;52859;48.104;11.574;2022-08-07T04:08:12;7.93;;;7.20;;
66073;SDS011;52859;48.104;11.574;2022-08-07T04:10:43;7.53;;;6.88;;
66073;SDS011;52859;48.104;11.574;2022-08-07T04:13:30;8.60;;;7.80;;
66073;SDS011;52859;48.104;11.574;2022-08-07T04:16:16;9.45;;;8.43;;
66073;SDS011;52859;48.104;11.574;2022-08-07T04:18:56;10.52;;;7.95;;
66073;SDS011;52859;48.104;11.574;2022-08-07T04:21:30;7.88;;;7.28;;
66073;SDS011;52859;48.104;11.574;2022-08-07T04:24:00;10.10;;;9.07;;
66073;SDS011;52859;48.104;11.574;2022-08-07T04:26:35;9.00;;;8.20;;
66073;SDS011;52859;48.104;11.574;2022-08-07T04:29:01;9.43;;;8.63;;
66073;SDS011;52859;48.104;11.574;2022-08-07T04:31:28;8.52;;;7.72;;
66073;SDS011;52859;48.104;11.574;2022-08-07T04:34:15;7.90;;;7.20;;
66073;SDS011;52859;48.104;11.574;2022-08-07T04:36:53;9.63;;;8.73;;
66073;SDS011;52859;48.104;11.574;2022-08-07T04:39:20;10.25;;;9.32;;
66073;SDS011;52859;48.104;11.574;2022-08-07T04:41:51;10.52;;;9.63;;
66073;SDS011;52859;48.104;11.574;2022-08-07T04:44:18;7.38;;;6.68;;
66073;SDS011;52859;48.104;11.574;2022-08-07T04:46:55;9.05;;;8.25;;
66073;SDS011;52859;48.104;11.574;2022-08-07T04:49:45;8.80;;;8.00;;
66073;SDS011;52859;48.104;11.574;2022-08-07T04:58:30;7.50;;;6.75;;
66073;SDS011;52859;48.104;11.574;2022-08-07T05:06:43;7.05;;;6.45;;
66073;SDS011;52859;48.104;11.574;2022-08-07T05:09:26;7.25;;;6.65;;
66073;SDS011;52859;48.104;11.574;2022-08-07T05:12:14;7.43;;;6.82;;
66073;SDS011;52859;48.104;11.574;2022-08-07T05:14:58;7.13;;;6.50;;
66073;SDS011;52859;48.104;11.574;2022-08-07T05:17:31;6.78;;;6.18;;
66073;SDS011;52859;48.104;11.574;2022-08-07T05:20:19;6.38;;;5.85;;
66073;SDS011;52859;48.104;11.574;2022-08-07T05:23:00;6.40;;;5.40;;
66073;SDS011;52859;48.104;11.574;2022-08-07T05:25:29;5.85;;;5.35;;
66073;SDS011;52859;48.104;11.574;2022-08-07T05:28:17;5.72;;;5.25;;
66073;SDS011;52859;48.104;11.574;2022-08-07T05:30:52;5.57;;;5.07;;
66073;SDS011;52859;48.104;11.574;2022-08-07T05:33:22;5.65;;;5.15;;
66073;SDS011;52859;48.104;11.574;2022-08-07T05:35:51;4.90;;;4.50;;
66073;SDS011;52859;48.104;11.574;2022-08-07T05:38:19;6.18;;;5.57;;
66073;SDS011;52859;48.104;11.574;2022-08-07T05:41:07;5.03;;;4.63;;
66073;SDS011;52859;48.104;11.574;2022-08-07T05:43:41;5.00;;;4.55;;
66073;SDS011;52859;48.104;11.574;2022-08-07T05:46:29;6.10;;;4.40;;
66073;SDS011;52859;48.104;11.574;2022-08-07T05:48:57;4.55;;;4.25;;
66073;SDS011;52859;48.104;11.574;2022-08-07T05:51:28;4.80;;;4.40;;
66073;SDS011;52859;48.104;11.574;2022-08-07T05:53:59;4.68;;;4.20;;
66073;SDS011;52859;48.104;11.574;2022-08-07T05:56:45;4.18;;;3.78;;
66073;SDS011;52859;48.104;11.574;2022-08-07T05:59:17;4.13;;;3.83;;
66073;SDS011;52859;48.104;11.574;2022-08-07T06:01:47;4.28;;;3.97;;
66073;SDS011;52859;48.104;11.574;2022-08-07T06:04:17;5.95;;;4.20;;
66073;SDS011;52859;48.104;11.574;2022-08-07T06:06:44;4.32;;;4.03;;
66073;SDS011;52859;48.104;11.574;2022-08-07T06:09:21;6.15;;;3.92;;
66073;SDS011;52859;48.104;11.574;2022-08-07T06:12:08;4.00;;;3.70;;
66073;SDS011;52859;48.104;11.574;2022-08-07T06:14:37;4.00;;;3.60;;
66073;SDS011;52859;48.104;11.574;2022-08-07T06:17:05;5.07;;;3.60;;
66073;SDS011;52859;48.104;11.574;2022-08-07T06:19:35;4.22;;;3.80;;
66073;SDS011;52859;48.104;11.574;2022-08-07T06:22:24;3.45;;;3.15;;
66073;SDS011;52859;48.104;11.574;2022-08-07T06:25:03;4.00;;;3.70;;
66073;SDS011;52859;48.104;11.574;2022-08-07T06:27:31;6.18;;;3.78;;
66073;SDS011;52859;48.104;11.574;2022-08-07T06:30:17;2.97;;;2.78;;
66073;SDS011;52859;48.104;11.574;2022-08-07T06:33:12;5.57;;;3.47;;
66073;SDS011;52859;48.104;11.574;2022-08-07T06:35:43;3.30;;;3.00;;
66073;SDS011;52859;48.104;11.574;2022-08-07T06:38:30;3.60;;;3.30;;
66073;SDS011;52859;48.104;11.574;2022-08-07T06:40:57;3.33;;;3.05;;
66073;SDS011;52859;48.104;11.574;2022-08-07T06:43:24;4.70;;;3.05;;
66073;SDS011;52859;48.104;11.574;2022-08-07T06:46:09;2.65;;;2.50;;
66073;SDS011;52859;48.104;11.574;2022-08-07T06:48:38;3.60;;;3.30;;
66073;SDS011;52859;48.104;11.574;2022-08-07T06:51:16;3.08;;;2.88;;
66073;SDS011;52859;48.104;11.574;2022-08-07T06:54:00;2.95;;;2.40;;
66073;SDS011;52859;48.104;11.574;2022-08-07T06:56:51;4.57;;;2.60;;
66073;SDS011;52859;48.104;11.574;2022-08-07T06:59:26;4.40;;;3.08;;
66073;SDS011;52859;48.104;11.574;2022-08-07T07:02:15;2.85;;;2.65;;
66073;SDS011;52859;48.104;11.574;2022-08-07T07:05:03;5.22;;;3.33;;
66073;SDS011;52859;48.104;11.574;2022-08-07T07:07:29;3.55;;;3.35;;
66073;SDS011;52859;48.104;11.574;2022-08-07T07:10:18;2.92;;;2.60;;
66073;SDS011;52859;48.104;11.574;2022-08-07T07:12:53;4.45;;;3.15;;
66073;SDS011;52859;48.104;11.574;2022-08-07T07:15:25;3.17;;;2.85;;
66073;SDS011;52859;48.104;11.574;2022-08-07T07:21:19;7.07;;;2.67;;
66073;SDS011;52859;48.104;11.574;2022-08-07T07:23:52;3.58;;;2.70;;
66073;SDS011;52859;48.104;11.574;2022-08-07T07:26:37;2.75;;;2.50;;
66073;SDS011;52859;48.104;11.574;2022-08-07T07:29:07;2.50;;;2.20;;
66073;SDS011;52859;48.104;11.574;2022-08-07T07:31:56;4.35;;;2.45;;
66073;SDS011;52859;48.104;11.574;2022-08-07T07:34:25;2.70;;;2.50;;
66073;SDS011;52859;48.104;11.574;2022-08-07T07:37:01;2.58;;;2.38;;
66073;SDS011;52859;48.104;11.574;2022-08-07T07:39:46;2.15;;;2.05;;
66073;SDS011;52859;48.104;11.574;2022-08-07T07:42:19;3.08;;;2.10;;
66073;SDS011;52859;48.104;11.574;2022-08-07T07:44:55;2.33;;;2.10;;
66073;SDS011;52859;48.104;11.574;2022-08-07T07:47:22;2.30;;;2.10;;
66073;SDS011;52859;48.104;11.574;2022-08-07T07:49:50;2.38;;;2.17;;
66073;SDS011;52859;48.104;11.574;2022-08-07T07:52:37;3.00;;;2.70;;
66073;SDS011;52859;48.104;11.574;2022-08-07T07:55:05;3.00;;;2.10;;
66073;SDS011;52859;48.104;11.574;2022-08-07T07:57:32;3.08;;;2.72;;
66073;SDS011;52859;48.104;11.574;2022-08-07T08:00:18;2.75;;;2.50;;
66073;SDS011;52859;48.104;11.574;2022-08-07T08:03:06;2.95;;;2.50;;
66073;SDS011;52859;48.104;11.574;2022-08-07T08:05:37;4.10;;;2.40;;
66073;SDS011;52859;48.104;11.574;2022-08-07T08:08:24;3.10;;;2.72;;
66073;SDS011;52859;48.104;11.574;2022-08-07T08:11:02;3.42;;;2.60;;
66073;SDS011;52859;48.104;11.574;2022-08-07T08:13:29;4.85;;;3.10;;
66073;SDS011;52859;48.104;11.574;2022-08-07T08:16:08;2.53;;;2.33;;
66073;SDS011;52859;48.104;11.574;2022-08-07T08:18:37;2.50;;;2.25;;
66073;SDS011;52859;48.104;11.574;2022-08-07T08:21:04;2.75;;;2.47;;
66073;SDS011;52859;48.104;11.574;2022-08-07T08:23:33;2.95;;;2.30;;
66073;SDS011;52859;48.104;11.574;2022-08-07T08:26:19;2.50;;;2.30;;
66073;SDS011;52859;48.104;11.574;2022-08-07T08:29:04;2.72;;;2.42;;
66073;SDS011;52859;48.104;11.574;2022-08-07T08:31:33;2.95;;;2.50;;
66073;SDS011;52859;48.104;11.574;2022-08-07T08:34:30;5.10;;;2.33;;
66073;SDS011;52859;48.104;11.574;2022-08-07T08:36:58;3.35;;;2.28;;
66073;SDS011;52859;48.104;11.574;2022-08-07T08:39:25;4.30;;;2.20;;
66073;SDS011;52859;48.104;11.574;2022-08-07T08:50:34;3.72;;;2.20;;
66073;SDS011;52859;48.104;11.574;2022-08-07T08:53:14;1.92;;;1.83;;
66073;SDS011;52859;48.104;11.574;2022-08-07T08:55:51;2.10;;;2.00;;
66073;SDS011;52859;48.104;11.574;2022-08-07T09:00:57;1.90;;;1.80;;
66073;SDS011;52859;48.104;11.574;2022-08-07T09:03:29;2.35;;;2.15;;
66073;SDS011;52859;48.104;11.574;2022-08-07T09:06:19;2.75;;;2.10;;
66073;SDS011;52859;48.104;11.574;2022-08-07T09:08:51;2.03;;;1.92;;
66073;SDS011;52859;48.104;11.574;2022-08-07T09:11:30;3.47;;;2.20;;
66073;SDS011;52859;48.104;11.574;2022-08-07T09:17:01;4.38;;;2.20;;
66073;SDS011;52859;48.104;11.574;2022-08-07T09:20:04;3.42;;;2.38;;
66073;SDS011;52859;48.104;11.574;2022-08-07T09:25:27;2.28;;;2.15;;
66073;SDS011;52859;48.104;11.574;2022-08-07T09:27:59;2.13;;;1.95;;
66073;SDS011;52859;48.104;11.574;2022-08-07T09:30:32;2.40;;;2.10;;
66073;SDS011;52859;48.104;11.574;2022-08-07T09:33:07;2.15;;;2.03;;
66073;SDS011;52859;48.104;11.574;2022-08-07T09:35:57;3.92;;;2.10;;
66073;SDS011;52859;48.104;11.574;2022-08-07T09:43:50;2.22;;;2.03;;
66073;SDS011;52859;48.104;11.574;2022-08-07T09:52:39;2.13;;;1.95;;
66073;SDS011;52859;48.104;11.574;2022-08-07T09:58:07;1.92;;;1.83;;
66073;SDS011;52859;48.104;11.574;2022-08-07T10:00:53;2.15;;;1.75;;
66073;SDS011;52859;48.104;11.574;2022-08-07T10:03:30;2.40;;;2.17;;
66073;SDS011;52859;48.104;11.574;2022-08-07T10:06:37;2.10;;;1.90;;
66073;SDS011;52859;48.104;11.574;2022-08-07T10:09:37;2.10;;;1.95;;
66073;SDS011;52859;48.104;11.574;2022-08-07T10:17:51;2.20;;;2.00;;
66073;SDS011;52859;48.104;11.574;2022-08-07T10:20:42;2.03;;;1.80;;
66073;SDS011;52859;48.104;11.574;2022-08-07T10:26:54;1.75;;;1.65;;
66073;SDS011;52859;48.104;11.574;2022-08-07T10:31:40;1.80;;;1.70;;
66073;SDS011;52859;48.104;11.574;2022-08-07T10:37:09;2.03;;;1.58;;
66073;SDS011;52859;48.104;11.574;2022-08-07T10:42:35;2.00;;;1.90;;
66073;SDS011;52859;48.104;11.574;2022-08-07T10:45:17;3.58;;;1.83;;
66073;SDS011;52859;48.104;11.574;2022-08-07T10:50:53;3.53;;;1.67;;
66073;SDS011;52859;48.104;11.574;2022-08-07T10:53:25;2.45;;;2.00;;
66073;SDS011;52859;48.104;11.574;2022-08-07T11:01:57;4.45;;;2.10;;
66073;SDS011;52859;48.104;11.574;2022-08-07T11:10:41;4.13;;;1.90;;
66073;SDS011;52859;48.104;11.574;2022-08-07T11:13:23;2.35;;;2.15;;
66073;SDS011;52859;48.104;11.574;2022-08-07T11:16:14;4.85;;;2.30;;
66073;SDS011;52859;48.104;11.574;2022-08-07T11:18:49;2.20;;;2.00;;
66073;SDS011;52859;48.104;11.574;2022-08-07T11:23:58;1.88;;;1.77;;
66073;SDS011;52859;48.104;11.574;2022-08-07T11:26:32;2.00;;;1.80;;
66073;SDS011;52859;48.104;11.574;2022-08-07T11:29:16;1.92;;;1.83;;
66073;SDS011;52859;48.104;11.574;2022-08-07T11:32:08;2.60;;;1.67;;
66073;SDS011;52859;48.104;11.574;2022-08-07T11:34:37;1.98;;;1.80;;
66073;SDS011;52859;48.104;11.574;2022-08-07T11:39:59;1.80;;;1.70;;
66073;SDS011;52859;48.104;11.574;2022-08-07T11:42:32;2.80;;;1.73;;
66073;SDS011;52859;48.104;11.574;2022-08-07T11:45:09;2.08;;;1.80;;
66073;SDS011;52859;48.104;11.574;2022-08-07T11:53:02;1.90;;;1.70;;
66073;SDS011;52859;48.104;11.574;2022-08-07T11:55:44;2.97;;;1.90;;
66073;SDS011;52859;48.104;11.574;2022-08-07T12:01:32;2.00;;;1.90;;
66073;SDS011;52859;48.104;11.574;2022-08-07T12:06:58;2.15;;;1.50;;
66073;SDS011;52859;48.104;11.574;2022-08-07T12:09:47;2.22;;;1.60;;
66073;SDS011;52859;48.104;11.574;2022-08-07T12:12:22;3.28;;;1.60;;
66073;SDS011;52859;48.104;11.574;2022-08-07T12:17:36;1.98;;;1.77;;
66073;SDS011;52859;48.104;11.574;2022-08-07T12:20:07;2.35;;;2.10;;
66073;SDS011;52859;48.104;11.574;2022-08-07T12:25:35;2.03;;;1.80;;
66073;SDS011;52859;48.104;11.574;2022-08-07T12:28:44;2.20;;;2.00;;
66073;SDS011;52859;48.104;11.574;2022-08-07T12:31:33;2.00;;;1.90;;
66073;SDS011;52859;48.104;11.574;2022-08-07T12:34:20;6.75;;;2.00;;
66073;SDS011;52859;48.104;11.574;2022-08-07T12:36:51;5.05;;;1.88;;
66073;SDS011;52859;48.104;11.574;2022-08-07T12:39:19;3.60;;;2.25;;
66073;SDS011;52859;48.104;11.574;2022-08-07T12:42:06;1999.90;;;999.90;;
66073;SDS011;52859;48.104;11.574;2022-08-07T12:44:37;1525.30;;;756.50;;
66073;SDS011;52859;48.104;11.574;2022-08-07T12:55:01;231.30;;;69.22;;
66073;SDS011;52859;48.104;11.574;2022-08-07T12:57:35;432.17;;;36.78;;
66073;SDS011;52859;48.104;11.574;2022-08-07T13:00:24;164.18;;;18.77;;
66073;SDS011;52859;48.104;11.574;2022-08-07T13:05:37;274.15;;;65.82;;
66073;SDS011;52859;48.104;11.574;2022-08-07T13:16:46;170.60;;;53.42;;
66073;SDS011;52859;48.104;11.574;2022-08-07T13:19:22;10.82;;;10.40;;
66073;SDS011;52859;48.104;11.574;2022-08-07T13:22:13;316.77;;;108.43;;
66073;SDS011;52859;48.104;11.574;2022-08-07T13:24:55;3.35;;;3.25;;
66073;SDS011;52859;48.104;11.574;2022-08-07T13:27:27;90.25;;;18.98;;
66073;SDS011;52859;48.104;11.574;2022-08-07T13:30:16;3.83;;;3.63;;
66073;SDS011;52859;48.104;11.574;2022-08-07T13:33:06;47.45;;;43.92;;
66073;SDS011;52859;48.104;11.574;2022-08-07T13:35:56;124.28;;;86.30;;
66073;SDS011;52859;48.104;11.574;2022-08-07T13:38:38;131.50;;;78.28;;
66073;SDS011;52859;48.104;11.574;2022-08-07T13:43:54;851.38;;;573.28;;
66073;SDS011;52859;48.104;11.574;2022-08-07T13:46:21;93.75;;;42.35;;
66073;SDS011;52859;48.104;11.574;2022-08-07T13:48:59;417.33;;;106.07;;
66073;SDS011;52859;48.104;11.574;2022-08-07T13:51:26;320.50;;;293.02;;
66073;SDS011;52859;48.104;11.574;2022-08-07T13:54:14;104.03;;;64.90;;
66073;SDS011;52859;48.104;11.574;2022-08-07T13:56:51;56.75;;;42.85;;
66073;SDS011;52859;48.104;11.574;2022-08-07T13:59:23;1512.97;;;757.00;;
66073;SDS011;52859;48.104;11.574;2022-08-07T14:01:54;1999.90;;;999.90;;
66073;SDS011;52859;48.104;11.574;2022-08-07T14:04:30;1999.90;;;999.90;;
66073;SDS011;52859;48.104;11.574;2022-08-07T14:07:04;1999.90;;;999.90;;
66073;SDS011;52859;48.104;11.574;2022-08-07T14:09:34;1999.90;;;999.90;;
66073;SDS011;52859;48.104;11.574;2022-08-07T14:12:28;1999.90;;;999.90;;
66073;SDS011;52859;48.104;11.574;2022-08-07T14:15:02;1999.90;;;999.90;;
66073;SDS011;52859;48.104;11.574;2022-08-07T14:17:30;1999.90;;;999.90;;
66073;SDS011;52859;48.104;11.574;2022-08-07T14:20:20;1999.90;;;999.90;;
66073;SDS011;52859;48.104;11.574;2022-08-07T14:23:13;1999.90;;;999.90;;
66073;SDS011;52859;48.104;11.574;2022-08-07T14:26:01;1999.90;;;999.90;;
66073;SDS011;52859;48.104;11.574;2022-08-07T14:28:33;1999.90;;;999.90;;
66073;SDS011;52859;48.104;11.574;2022-08-07T14:31:22;1999.90;;;999.90;;
66073;SDS011;52859;48.104;11.574;2022-08-07T14:33:49;1999.90;;;999.90;;
66073;SDS011;52859;48.104;11.574;2022-08-07T14:36:16;1999.90;;;999.90;;
66073;SDS011;52859;48.104;11.574;2022-08-07T14:38:43;1999.90;;;999.90;;
66073;SDS011;52859;48.104;11.574;2022-08-07T14:41:17;1999.90;;;999.90;;
66073;SDS011;52859;48.104;11.574;2022-08-07T14:44:08;1999.90;;;999.90;;
66073;SDS011;52859;48.104;11.574;2022-08-07T14:46:41;1999.90;;;999.90;;
66073;SDS011;52859;48.104;11.574;2022-08-07T14:49:28;1999.90;;;999.90;;
66073;SDS011;52859;48.104;11.574;2022-08-07T14:52:17;1999.90;;;999.90;;
66073;SDS011;52859;48.104;11.574;2022-08-07T14:54:44;1999.90;;;999.90;;
66073;SDS011;52859;48.104;11.574;2022-08-07T14:57:19;1999.90;;;999.90;;
66073;SDS011;52859;48.104;11.574;2022-08-07T14:59:48;1999.90;;;999.90;;
66073;SDS011;52859;48.104;11.574;2022-08-07T15:02:30;1999.90;;;999.90;;
66073;SDS011;52859;48.104;11.574;2022-08-07T15:05:00;1999.90;;;999.90;;
66073;SDS011;52859;48.104;11.574;2022-08-07T15:07:28;1999.90;;;999.90;;
66073;SDS011;52859;48.104;11.574;2022-08-07T15:10:18;1999.90;;;999.90;;
66073;SDS011;52859;48.104;11.574;2022-08-07T15:12:53;1999.90;;;999.90;;
66073;SDS011;52859;48.104;11.574;2022-08-07T15:15:24;1999.90;;;999.90;;
66073;SDS011;52859;48.104;11.574;2022-08-07T15:17:52;1999.90;;;999.90;;
66073;SDS011;52859;48.104;11.574;2022-08-07T15:20:22;1999.90;;;999.90;;
66073;SDS011;52859;48.104;11.574;2022-08-07T15:23:14;1999.90;;;999.90;;
66073;SDS011;52859;48.104;11.574;2022-08-07T15:25:49;1999.90;;;999.90;;
66073;SDS011;52859;48.104;11.574;2022-08-07T15:28:16;1999.90;;;999.90;;
66073;SDS011;52859;48.104;11.574;2022-08-07T15:31:07;1999.90;;;999.90;;
66073;SDS011;52859;48.104;11.574;2022-08-07T15:33:34;1999.90;;;999.90;;
66073;SDS011;52859;48.104;11.574;2022-08-07T15:36:08;1999.90;;;999.90;;
66073;SDS011;52859;48.104;11.574;2022-08-07T15:38:35;1999.90;;;999.90;;
66073;SDS011;52859;48.104;11.574;2022-08-07T15:41:22;1999.90;;;999.90;;
66073;SDS011;52859;48.104;11.574;2022-08-07T15:44:09;1999.90;;;999.90;;
66073;SDS011;52859;48.104;11.574;2022-08-07T15:46:38;1999.90;;;999.90;;
66073;SDS011;52859;48.104;11.574;2022-08-07T15:49:27;1999.90;;;999.90;;
66073;SDS011;52859;48.104;11.574;2022-08-07T15:52:18;1999.90;;;999.90;;
66073;SDS011;52859;48.104;11.574;2022-08-07T15:54:46;1999.90;;;999.90;;
66073;SDS011;52859;48.104;11.574;2022-08-07T15:57:14;1999.90;;;999.90;;
66073;SDS011;52859;48.104;11.574;2022-08-07T16:00:04;1999.90;;;999.90;;
66073;SDS011;52859;48.104;11.574;2022-08-07T16:02:34;1999.90;;;999.90;;
66073;SDS011;52859;48.104;11.574;2022-08-07T16:05:05;1999.90;;;999.90;;
66073;SDS011;52859;48.104;11.574;2022-08-07T16:07:52;1999.90;;;999.90;;
66073;SDS011;52859;48.104;11.574;2022-08-07T16:10:40;1999.90;;;999.90;;
66073;SDS011;52859;48.104;11.574;2022-08-07T16:19:02;1999.90;;;999.90;;
66073;SDS011;52859;48.104;11.574;2022-08-07T16:32:33;1999.90;;;999.90;;
66073;SDS011;52859;48.104;11.574;2022-08-07T16:35:20;1999.90;;;999.90;;
66073;SDS011;52859;48.104;11.574;2022-08-07T16:52:23;1999.90;;;999.90;;
66073;SDS011;52859;48.104;11.574;2022-08-07T16:55:24;1999.90;;;999.90;;
66073;SDS011;52859;48.104;11.574;2022-08-07T17:03:21;1999.90;;;999.90;;
66073;SDS011;52859;48.104;11.574;2022-08-07T17:06:19;1999.90;;;999.90;;
66073;SDS011;52859;48.104;11.574;2022-08-07T17:09:18;1999.90;;;999.90;;
66073;SDS011;52859;48.104;11.574;2022-08-07T17:12:11;1999.90;;;999.90;;
66073;SDS011;52859;48.104;11.574;2022-08-07T17:20:30;1999.90;;;999.90;;
66073;SDS011;52859;48.104;11.574;2022-08-07T17:23:09;1999.90;;;999.90;;
66073;SDS011;52859;48.104;11.574;2022-08-07T17:25:44;1999.90;;;999.90;;
66073;SDS011;52859;48.104;11.574;2022-08-07T17:28:28;1999.90;;;999.90;;
66073;SDS011;52859;48.104;11.574;2022-08-07T17:31:04;1999.90;;;999.90;;
66073;SDS011;52859;48.104;11.574;2022-08-07T17:33:49;1999.90;;;999.90;;
66073;SDS011;52859;48.104;11.574;2022-08-07T17:36:38;1999.90;;;999.90;;
66073;SDS011;52859;48.104;11.574;2022-08-07T17:39:37;1999.90;;;999.90;;
66073;SDS011;52859;48.104;11.574;2022-08-07T17:42:30;1999.90;;;999.90;;
66073;SDS011;52859;48.104;11.574;2022-08-07T17:44:59;1999.90;;;999.90;;
66073;SDS011;52859;48.104;11.574;2022-08-07T17:50:17;1999.90;;;999.90;;
66073;SDS011;52859;48.104;11.574;2022-08-07T17:52:47;1999.90;;;999.90;;
66073;SDS011;52859;48.104;11.574;2022-08-07T17:55:16;1999.90;;;999.90;;
66073;SDS011;52859;48.104;11.574;2022-08-07T17:58:16;1999.90;;;999.90;;
66073;SDS011;52859;48.104;11.574;2022-08-07T18:00:56;1999.90;;;999.90;;